This is the latest recevied weather packets stored in our database for station/object SP4IM-13. If no packets are shown the sender has not sent any weather packets the latest 10 day(s).
| Time | Temp. | Humidity | Pressure | Rain* | Wind** | Luminosity | Snow |
|---|---|---|---|---|---|---|---|
| 1777444205 | 2.78° C | 44% | 1023 hPa | - | - | - | - |
| 1777443607 | 2.78° C | 45% | 1023 hPa | - | - | - | - |
| 1777443007 | 2.22° C | 46% | 1023 hPa | - | - | - | - |
| 1777442407 | 2.22° C | 45% | 1023 hPa | - | - | - | - |
| 1777441806 | 2.22° C | 47% | 1022 hPa | - | - | - | - |
| 1777441204 | 1.67° C | 48% | 1022 hPa | - | - | - | - |
| 1777440604 | 1.67° C | 51% | 1022 hPa | - | - | - | - |
| 1777440005 | 1.67° C | 57% | 1022 hPa | - | - | - | - |
| 1777439406 | 1.11° C | 61% | 1022 hPa | - | - | - | - |
| 1777438807 | 1.11° C | 67% | 1022 hPa | - | - | - | - |
| 1777438204 | 0.56° C | 71% | 1022 hPa | - | - | - | - |
| 1777437602 | 0° C | 72% | 1022 hPa | - | - | - | - |
| 1777437003 | -0.56° C | 74% | 1022 hPa | - | - | - | - |
| 1777435803 | -0.56° C | 79% | 1022 hPa | - | - | - | - |
| 1777435205 | -0.56° C | 80% | 1022 hPa | - | - | - | - |
| 1777414203 | 1.67° C | 69% | 1021 hPa | - | - | - | - |
| 1777413602 | 2.22° C | 69% | 1021 hPa | - | - | - | - |
| 1777411202 | 2.22° C | 68% | 1021 hPa | - | - | - | - |
| 1777408202 | 2.78° C | 67% | 1021 hPa | - | - | - | - |
| 1777406403 | 3.33° C | 66% | 1021 hPa | - | - | - | - |
| 1777404602 | 3.89° C | 64% | 1021 hPa | - | - | - | - |
| 1777403402 | 4.44° C | 63% | 1021 hPa | - | - | - | - |
| 1777393802 | 8.33° C | 43% | 1020 hPa | - | - | - | - |
| 1777389002 | 7.78° C | 46% | 1019 hPa | - | - | - | - |
| 1777388403 | 7.78° C | 47% | 1019 hPa | - | - | - | - |
* Rain since midnight (hover to see other rain measurements)
** Current wind speed in m/s (hover to see current wind gust speed)